createdAt,value
2019-04-04T00:01:02.169Z,11.07
2019-04-04T00:03:31.625Z,11.63
2019-04-04T00:06:00.942Z,11.80
2019-04-04T00:08:31.636Z,11.13
2019-04-04T00:10:59.830Z,11.27
2019-04-04T00:13:29.311Z,12.10
2019-04-04T00:15:58.667Z,12.20
2019-04-04T00:18:28.419Z,13.73
2019-04-04T00:20:57.713Z,13.17
2019-04-04T00:23:27.029Z,12.30
2019-04-04T00:26:17.899Z,11.77
2019-04-04T00:28:47.235Z,13.07
2019-04-04T00:31:18.906Z,12.70
2019-04-04T00:33:45.867Z,14.23
2019-04-04T00:36:15.723Z,14.27
2019-04-04T00:38:45.021Z,13.50
2019-04-04T00:41:14.614Z,13.67
2019-04-04T00:43:46.022Z,13.90
2019-04-04T00:46:15.402Z,13.97
2019-04-04T00:48:44.712Z,14.70
2019-04-04T00:51:13.952Z,13.83
2019-04-04T00:53:43.599Z,15.37
2019-04-04T00:56:12.528Z,14.50
2019-04-04T00:58:41.967Z,14.23
2019-04-04T01:01:11.282Z,14.93
2019-04-04T01:03:40.576Z,14.53
2019-04-04T01:06:09.983Z,15.10
2019-04-04T01:08:39.314Z,15.63
2019-04-04T01:11:08.569Z,15.47
2019-04-04T01:13:37.858Z,15.83
2019-04-04T01:16:07.135Z,17.20
2019-04-04T01:18:37.455Z,15.83
2019-04-04T01:21:05.635Z,16.77
2019-04-04T01:23:34.911Z,17.30
2019-04-04T01:26:04.214Z,17.10
2019-04-04T01:28:33.521Z,17.77
2019-04-04T01:31:02.854Z,17.43
2019-04-04T01:33:32.120Z,17.20
2019-04-04T01:36:01.365Z,16.87
2019-04-04T01:38:30.605Z,16.90
2019-04-04T01:40:59.843Z,18.17
2019-04-04T01:43:29.077Z,16.97
2019-04-04T01:45:58.319Z,18.23
2019-04-04T01:48:27.619Z,18.90
2019-04-04T01:50:56.859Z,19.50
2019-04-04T01:53:26.132Z,19.80
2019-04-04T01:55:55.439Z,19.80
2019-04-04T01:58:24.681Z,21.30
2019-04-04T02:00:53.932Z,21.60
2019-04-04T02:03:23.394Z,22.40
2019-04-04T02:05:52.370Z,22.03
2019-04-04T02:08:21.625Z,21.87
2019-04-04T02:10:50.891Z,22.47
2019-04-04T02:13:20.128Z,23.63
2019-04-04T02:15:49.367Z,23.17
2019-04-04T02:18:18.639Z,24.63
2019-04-04T02:20:47.852Z,23.20
2019-04-04T02:23:17.067Z,23.83
2019-04-04T02:25:46.282Z,23.83
2019-04-04T02:28:15.507Z,24.93
2019-04-04T02:30:48.022Z,25.50
2019-04-04T02:33:14.009Z,24.57
2019-04-04T02:35:43.959Z,24.60
2019-04-04T02:38:12.536Z,22.60
2019-04-04T02:40:42.281Z,22.53
2019-04-04T02:43:10.952Z,24.63
2019-04-04T02:45:40.162Z,23.50
2019-04-04T02:48:09.418Z,25.60
2019-04-04T02:50:38.736Z,25.47
2019-04-04T02:53:08.035Z,24.30
2019-04-04T02:55:37.326Z,23.03
2019-04-04T02:58:06.605Z,27.70
2019-04-04T03:00:35.916Z,24.43
2019-04-04T03:03:08.028Z,24.20
2019-04-04T03:05:34.642Z,24.67
2019-04-04T03:08:04.584Z,23.57
2019-04-04T03:10:33.091Z,23.87
2019-04-04T03:13:02.320Z,23.23
2019-04-04T03:15:31.535Z,25.90
2019-04-04T03:18:04.071Z,25.50
2019-04-04T03:20:30.013Z,23.87
2019-04-04T03:23:00.580Z,25.50
2019-04-04T03:25:28.484Z,25.07
2019-04-04T03:27:58.258Z,24.57
2019-04-04T03:30:26.972Z,25.83
2019-04-04T03:32:56.230Z,25.17
2019-04-04T03:35:28.086Z,25.50
2019-04-04T03:37:54.766Z,25.83
2019-04-04T03:40:25.588Z,25.37
2019-04-04T03:42:53.349Z,26.33
2019-04-04T03:45:26.188Z,26.87
2019-04-04T03:47:51.802Z,25.23
2019-04-04T03:50:21.006Z,26.50
2019-04-04T03:52:50.287Z,25.33
2019-04-04T03:55:19.458Z,25.33
2019-04-04T03:57:48.724Z,26.37
2019-04-04T04:00:27.247Z,25.07
2019-04-04T04:02:56.511Z,24.67
2019-04-04T04:05:26.239Z,24.77
2019-04-04T04:07:55.452Z,24.90
2019-04-04T04:10:24.712Z,25.90
2019-04-04T04:12:53.941Z,26.33
2019-04-04T04:15:23.166Z,25.87
2019-04-04T04:17:52.396Z,26.33
2019-04-04T04:20:21.615Z,26.33
2019-04-04T04:22:51.665Z,25.60
2019-04-04T04:25:20.166Z,25.20
2019-04-04T04:27:50.382Z,25.87
2019-04-04T04:30:19.642Z,26.30
2019-04-04T04:32:48.897Z,25.60
2019-04-04T04:35:18.176Z,24.23
2019-04-04T04:37:52.310Z,24.40
2019-04-04T04:40:16.793Z,24.47
2019-04-04T04:42:46.029Z,26.00
2019-04-04T04:45:15.275Z,25.67
2019-04-04T04:47:44.479Z,25.27
2019-04-04T04:50:13.722Z,24.67
2019-04-04T04:52:46.494Z,24.93
2019-04-04T04:55:12.299Z,24.67
2019-04-04T04:57:41.396Z,25.47
2019-04-04T05:00:10.841Z,25.23
2019-04-04T05:02:40.203Z,29.63
2019-04-04T05:05:09.591Z,27.40
2019-04-04T05:07:39.140Z,27.73
2019-04-04T05:10:08.176Z,29.10
2019-04-04T05:12:37.469Z,27.93
2019-04-04T05:15:06.795Z,27.50
2019-04-04T05:17:36.165Z,28.83
2019-04-04T05:20:06.159Z,28.17
2019-04-04T05:22:35.440Z,28.73
2019-04-04T05:25:08.394Z,26.77
2019-04-04T05:27:36.848Z,28.20
2019-04-04T05:30:03.682Z,28.37
2019-04-04T05:32:32.959Z,29.63
2019-04-04T05:35:02.271Z,28.93
2019-04-04T05:37:31.515Z,27.47
2019-04-04T05:40:00.821Z,25.73
2019-04-04T05:42:32.779Z,27.13
2019-04-04T05:44:59.467Z,25.87
2019-04-04T05:47:28.848Z,26.40
2019-04-04T05:49:58.458Z,28.87
2019-04-04T05:52:27.839Z,25.17
2019-04-04T05:54:57.423Z,27.03
2019-04-04T05:57:26.629Z,25.37
2019-04-04T05:59:56.191Z,26.60
2019-04-04T06:02:25.053Z,24.03
2019-04-04T06:04:55.412Z,26.43
2019-04-04T06:07:23.556Z,25.33
2019-04-04T06:09:52.983Z,26.13
2019-04-04T06:12:24.722Z,26.00
2019-04-04T06:14:51.523Z,26.50
2019-04-04T06:17:20.765Z,24.53
2019-04-04T06:19:50.047Z,24.63
2019-04-04T06:22:21.127Z,22.97
2019-04-04T06:24:48.643Z,20.87
2019-04-04T06:27:17.910Z,20.37
2019-04-04T06:29:47.978Z,19.27
2019-04-04T06:32:16.523Z,19.57
2019-04-04T06:34:45.770Z,18.13
2019-04-04T06:37:15.078Z,19.63
2019-04-04T06:39:44.374Z,19.73
2019-04-04T06:42:13.656Z,21.00
2019-04-04T06:44:43.904Z,20.30
2019-04-04T06:47:12.125Z,20.70
2019-04-04T06:49:41.343Z,21.87
2019-04-04T06:52:10.575Z,21.77
2019-04-04T06:54:39.835Z,22.00
2019-04-04T06:57:09.065Z,21.83
2019-04-04T06:59:38.389Z,20.97
2019-04-04T07:02:07.626Z,21.87
2019-04-04T07:04:36.867Z,21.13
2019-04-04T07:07:06.092Z,21.83
2019-04-04T07:09:37.243Z,20.30
2019-04-04T07:12:06.500Z,22.50
2019-04-04T07:14:45.254Z,21.13
2019-04-04T07:17:03.404Z,20.20
2019-04-04T07:19:32.445Z,20.13
2019-04-04T07:22:01.667Z,19.83
2019-04-04T07:24:31.181Z,19.70
2019-04-04T07:27:00.192Z,20.43
2019-04-04T07:29:29.360Z,24.67
2019-04-04T07:31:58.559Z,21.60
2019-04-04T07:34:27.838Z,19.77
2019-04-04T07:36:57.107Z,19.87
2019-04-04T07:39:26.330Z,20.20
2019-04-04T07:41:55.560Z,21.10
2019-04-04T07:44:24.873Z,20.30
2019-04-04T07:46:54.077Z,20.63
2019-04-04T07:49:23.948Z,20.53
2019-04-04T07:51:52.555Z,21.07
2019-04-04T07:54:21.786Z,19.83
2019-04-04T07:56:51.021Z,20.70
2019-04-04T07:59:20.267Z,20.17
2019-04-04T08:01:51.292Z,20.90
2019-04-04T08:04:18.948Z,20.03
2019-04-04T08:06:48.178Z,21.43
2019-04-04T08:09:17.422Z,21.87
2019-04-04T08:11:46.636Z,20.37
2019-04-04T08:14:15.900Z,21.27
2019-04-04T08:16:45.146Z,21.63
2019-04-04T08:19:14.375Z,22.47
2019-04-04T08:21:43.608Z,21.87
2019-04-04T08:24:12.850Z,22.07
2019-04-04T08:26:42.071Z,21.97
2019-04-04T08:29:11.290Z,22.10
2019-04-04T08:31:40.572Z,20.37
2019-04-04T08:34:09.872Z,21.17
2019-04-04T08:36:39.083Z,20.53
2019-04-04T08:39:11.334Z,20.60
2019-04-04T08:41:40.708Z,20.20
2019-04-04T08:44:10.109Z,20.07
2019-04-04T08:46:39.370Z,19.03
2019-04-04T08:49:08.638Z,19.93
2019-04-04T08:51:37.890Z,19.87
2019-04-04T08:54:07.199Z,20.20
2019-04-04T08:56:36.444Z,19.53
2019-04-04T08:59:05.670Z,20.20
2019-04-04T09:01:34.948Z,19.97
2019-04-04T09:04:04.181Z,20.93
2019-04-04T09:06:33.415Z,20.97
2019-04-04T09:09:02.702Z,20.77
2019-04-04T09:11:31.974Z,24.90
2019-04-04T09:14:01.160Z,21.20
2019-04-04T09:16:30.470Z,20.37
2019-04-04T09:18:59.696Z,22.10
2019-04-04T09:21:28.964Z,20.93
2019-04-04T09:24:00.466Z,20.33
2019-04-04T09:26:27.467Z,20.87
2019-04-04T09:28:56.676Z,19.43
2019-04-04T09:31:25.948Z,20.00
2019-04-04T09:33:55.185Z,20.37
2019-04-04T09:36:24.422Z,21.20
2019-04-04T09:38:53.699Z,21.17
2019-04-04T09:41:22.927Z,19.33
2019-04-04T09:43:52.168Z,18.80
2019-04-04T09:46:21.432Z,18.97
2019-04-04T09:48:50.699Z,18.97
2019-04-04T09:51:19.998Z,18.10
2019-04-04T09:53:53.148Z,18.83
2019-04-04T09:56:18.502Z,19.13
2019-04-04T09:58:47.728Z,17.70
2019-04-04T10:01:16.961Z,18.27
2019-04-04T10:03:46.224Z,18.60
2019-04-04T10:06:15.474Z,18.27
2019-04-04T10:08:44.717Z,18.60
2019-04-04T10:11:14.025Z,19.33
2019-04-04T10:13:43.312Z,18.00
2019-04-04T10:16:12.551Z,19.70
2019-04-04T10:18:41.771Z,19.47
2019-04-04T10:21:12.441Z,19.80
2019-04-04T10:23:40.357Z,19.77
2019-04-04T10:26:09.656Z,19.37
2019-04-04T10:28:38.935Z,18.77
2019-04-04T10:31:08.137Z,20.23
2019-04-04T10:33:37.363Z,19.33
2019-04-04T10:36:06.585Z,19.87
2019-04-04T10:38:35.849Z,19.70
2019-04-04T10:41:05.103Z,19.80
2019-04-04T10:43:34.325Z,20.70
2019-04-04T10:46:03.520Z,18.70
2019-04-04T10:48:32.738Z,19.23
2019-04-04T10:51:01.952Z,20.27
2019-04-04T10:53:31.195Z,18.63
2019-04-04T10:56:00.414Z,20.23
2019-04-04T10:58:29.693Z,19.37
2019-04-04T11:00:58.914Z,20.60
2019-04-04T11:03:28.212Z,19.43
2019-04-04T11:05:57.437Z,20.70
2019-04-04T11:08:26.682Z,20.17
2019-04-04T11:10:58.850Z,19.87
2019-04-04T11:13:33.341Z,20.30
2019-04-04T11:15:54.534Z,19.93
2019-04-04T11:18:23.788Z,19.47
2019-04-04T11:20:52.996Z,19.83
2019-04-04T11:23:22.259Z,20.33
2019-04-04T11:25:51.512Z,20.50
2019-04-04T11:28:20.755Z,20.07
2019-04-04T11:30:49.988Z,19.17
2019-04-04T11:33:19.293Z,18.80
2019-04-04T11:35:48.555Z,19.00
2019-04-04T11:38:17.809Z,17.60
2019-04-04T11:40:47.024Z,19.97
2019-04-04T11:43:16.264Z,19.97
2019-04-04T11:45:45.512Z,20.03
2019-04-04T11:48:14.746Z,20.10
2019-04-04T11:50:43.959Z,20.43
2019-04-04T11:53:13.313Z,19.87
2019-04-04T11:55:42.577Z,18.97
2019-04-04T11:58:11.800Z,19.37
2019-04-04T12:00:42.368Z,19.77
2019-04-04T12:03:11.593Z,20.40
2019-04-04T12:05:40.834Z,22.67
2019-04-04T12:08:10.067Z,20.63
2019-04-04T12:10:39.348Z,21.80
2019-04-04T12:13:08.628Z,21.50
2019-04-04T12:15:37.904Z,21.10
2019-04-04T12:18:07.140Z,21.40
2019-04-04T12:20:36.383Z,21.90
2019-04-04T12:23:05.628Z,22.53
2019-04-04T12:25:34.884Z,22.37
2019-04-04T12:28:04.106Z,22.80
2019-04-04T12:30:33.407Z,23.60
2019-04-04T12:33:02.645Z,26.20
2019-04-04T12:35:31.888Z,22.80
2019-04-04T12:38:01.106Z,22.97
2019-04-04T12:40:30.322Z,21.53
2019-04-04T12:42:59.608Z,22.03
2019-04-04T12:45:28.873Z,24.33
2019-04-04T12:47:58.100Z,21.73
2019-04-04T12:50:27.334Z,23.23
2019-04-04T12:52:56.622Z,23.20
2019-04-04T12:55:25.860Z,22.47
2019-04-04T12:57:55.109Z,23.27
2019-04-04T13:00:24.352Z,22.10
2019-04-04T13:02:53.624Z,21.37
2019-04-04T13:05:22.866Z,21.27
2019-04-04T13:07:52.143Z,21.43
2019-04-04T13:10:32.535Z,21.00
2019-04-04T13:12:50.666Z,21.63
2019-04-04T13:15:19.947Z,21.40
2019-04-04T13:17:49.160Z,21.63
2019-04-04T13:20:18.364Z,23.93
2019-04-04T13:22:47.630Z,22.10
2019-04-04T13:25:16.942Z,22.40
2019-04-04T13:27:46.232Z,21.50
2019-04-04T13:30:15.458Z,20.57
2019-04-04T13:32:44.681Z,20.93
2019-04-04T13:35:14.022Z,21.33
2019-04-04T13:37:43.261Z,22.07
2019-04-04T13:40:12.534Z,20.97
2019-04-04T13:42:41.782Z,21.03
2019-04-04T13:45:11.573Z,22.17
2019-04-04T13:47:40.803Z,19.97
2019-04-04T13:50:12.459Z,21.27
2019-04-04T13:52:39.338Z,21.63
2019-04-04T13:55:08.566Z,21.70
2019-04-04T13:57:39.242Z,21.00
2019-04-04T14:00:07.122Z,21.30
2019-04-04T14:02:36.449Z,20.77
2019-04-04T14:05:10.183Z,20.90
2019-04-04T14:07:35.693Z,21.47
2019-04-04T14:10:05.582Z,20.80
2019-04-04T14:12:34.999Z,21.33
2019-04-04T14:15:04.650Z,21.07
2019-04-04T14:17:33.986Z,21.13
2019-04-04T14:20:03.199Z,21.27
2019-04-04T14:22:32.464Z,21.93
2019-04-04T14:25:01.775Z,20.90
2019-04-04T14:27:30.982Z,21.93
2019-04-04T14:30:00.185Z,20.93
2019-04-04T14:32:29.432Z,21.37
2019-04-04T14:34:58.647Z,20.47
2019-04-04T14:37:27.882Z,20.37
2019-04-04T14:39:57.280Z,22.20
2019-04-04T14:42:26.517Z,20.97
2019-04-04T14:44:55.784Z,21.87
2019-04-04T14:47:25.008Z,21.43
2019-04-04T14:49:54.227Z,20.13
2019-04-04T14:52:24.292Z,22.37
2019-04-04T14:54:52.654Z,21.33
2019-04-04T14:57:21.930Z,22.10
2019-04-04T14:59:51.171Z,21.43
2019-04-04T15:02:20.572Z,21.03
2019-04-04T15:04:49.827Z,19.97
2019-04-04T15:07:19.033Z,21.57
2019-04-04T15:09:48.378Z,19.47
2019-04-04T15:12:17.602Z,20.20
2019-04-04T15:14:46.833Z,20.87
2019-04-04T15:17:16.144Z,20.67
2019-04-04T15:19:45.770Z,20.70
2019-04-04T15:22:15.062Z,21.17
2019-04-04T15:24:44.312Z,21.03
2019-04-04T15:27:12.868Z,21.87
2019-04-04T15:29:42.172Z,21.33
2019-04-04T15:32:11.416Z,20.93
2019-04-04T15:34:40.684Z,20.67
2019-04-04T15:37:09.883Z,21.07
2019-04-04T15:39:39.134Z,20.70
2019-04-04T15:42:08.470Z,21.03
2019-04-04T15:44:37.769Z,21.10
2019-04-04T15:47:07.034Z,20.40
2019-04-04T15:49:36.387Z,25.03
2019-04-04T15:52:05.686Z,22.03
2019-04-04T15:54:34.932Z,21.40
2019-04-04T15:57:04.160Z,21.93
2019-04-04T15:59:33.377Z,22.27
2019-04-04T16:02:02.626Z,22.00
2019-04-04T16:04:31.969Z,22.37
2019-04-04T16:07:02.209Z,21.83
2019-04-04T16:09:31.498Z,23.20
2019-04-04T16:12:00.710Z,22.00
2019-04-04T16:14:29.942Z,23.00
2019-04-04T16:16:59.247Z,23.87
2019-04-04T16:19:28.452Z,23.67
2019-04-04T16:21:57.748Z,32.63
2019-04-04T16:24:26.984Z,24.90
2019-04-04T16:26:56.333Z,23.07
2019-04-04T16:29:25.543Z,25.03
2019-04-04T16:31:54.840Z,25.13
2019-04-04T16:34:24.103Z,22.37
2019-04-04T16:36:53.411Z,24.20
2019-04-04T16:39:22.674Z,24.53
2019-04-04T16:42:01.485Z,24.07
2019-04-04T16:44:21.180Z,24.63
2019-04-04T16:46:50.518Z,24.67
2019-04-04T16:49:19.730Z,25.20
2019-04-04T16:51:48.988Z,24.23
2019-04-04T16:54:18.415Z,25.50
2019-04-04T16:56:47.688Z,24.67
2019-04-04T16:59:16.994Z,23.73
2019-04-04T17:01:46.237Z,23.13
2019-04-04T17:04:15.464Z,24.10
2019-04-04T17:06:44.741Z,24.07
2019-04-04T17:09:13.970Z,23.63
2019-04-04T17:11:43.238Z,25.10
2019-04-04T17:14:12.406Z,24.60
2019-04-04T17:16:41.665Z,23.50
2019-04-04T17:19:10.902Z,23.93
2019-04-04T17:21:40.414Z,22.63
2019-04-04T17:24:09.861Z,23.27
2019-04-04T17:26:39.371Z,23.27
2019-04-04T17:29:08.588Z,24.03
2019-04-04T17:31:37.888Z,22.93
2019-04-04T17:34:07.615Z,24.07
2019-04-04T17:36:36.524Z,24.80
2019-04-04T17:39:07.418Z,23.43
2019-04-04T17:41:36.991Z,24.27
2019-04-04T17:44:06.585Z,24.63
2019-04-04T17:46:35.502Z,24.63
2019-04-04T17:49:04.444Z,24.63
2019-04-04T17:51:33.685Z,24.37
2019-04-04T17:54:03.721Z,24.67
2019-04-04T17:56:32.862Z,23.63
2019-04-04T17:59:01.769Z,25.60
2019-04-04T18:01:34.202Z,24.03
2019-04-04T18:04:00.730Z,25.40
2019-04-04T18:06:29.994Z,23.50
2019-04-04T18:08:59.309Z,25.87
2019-04-04T18:11:28.576Z,28.37
2019-04-04T18:13:57.859Z,26.77
2019-04-04T18:16:27.152Z,27.43
2019-04-04T18:18:56.586Z,28.03
2019-04-04T18:21:25.812Z,27.47
2019-04-04T18:23:55.186Z,27.93
2019-04-04T18:26:24.428Z,30.00
2019-04-04T18:28:53.661Z,29.87
2019-04-04T18:31:22.950Z,28.93
2019-04-04T18:33:52.631Z,29.07
2019-04-04T18:36:22.100Z,28.67
2019-04-04T18:38:50.781Z,28.60
2019-04-04T18:41:20.063Z,27.23
2019-04-04T18:43:49.372Z,28.80
2019-04-04T18:46:18.618Z,30.90
2019-04-04T18:48:47.854Z,28.67
2019-04-04T18:51:17.220Z,28.73
2019-04-04T18:53:46.456Z,27.10
2019-04-04T18:56:15.826Z,33.20
2019-04-04T18:58:45.062Z,30.53
2019-04-04T19:01:14.783Z,32.40
2019-04-04T19:03:44.042Z,27.97
2019-04-04T19:06:13.294Z,31.57
2019-04-04T19:08:42.558Z,30.63
2019-04-04T19:11:11.790Z,29.33
2019-04-04T19:13:44.438Z,30.77
2019-04-04T19:16:10.360Z,31.00
2019-04-04T19:18:39.580Z,31.47
2019-04-04T19:21:08.813Z,31.97
2019-04-04T19:23:48.623Z,31.83
2019-04-04T19:26:07.359Z,31.47
2019-04-04T19:28:36.587Z,31.33
2019-04-04T19:31:05.815Z,32.00
2019-04-04T19:33:35.090Z,31.33
2019-04-04T19:36:04.346Z,32.87
2019-04-04T19:38:34.680Z,31.63
2019-04-04T19:41:03.947Z,31.50
2019-04-04T19:43:33.237Z,35.33
2019-04-04T19:46:02.486Z,33.27
2019-04-04T19:48:31.716Z,34.77
2019-04-04T19:51:01.001Z,35.37
2019-04-04T19:53:30.303Z,35.93
2019-04-04T19:55:59.523Z,35.07
2019-04-04T19:58:28.743Z,35.37
2019-04-04T20:00:57.970Z,35.27
2019-04-04T20:03:27.234Z,36.57
2019-04-04T20:05:56.472Z,38.07
2019-04-04T20:08:25.797Z,36.60
2019-04-04T20:10:55.261Z,37.63
2019-04-04T20:13:30.792Z,39.53
2019-04-04T20:15:53.918Z,35.97
2019-04-04T20:18:23.142Z,39.27
2019-04-04T20:20:52.651Z,38.20
2019-04-04T20:23:21.868Z,37.13
2019-04-04T20:25:51.107Z,38.10
2019-04-04T20:28:20.321Z,38.40
2019-04-04T20:30:49.569Z,37.30
2019-04-04T20:33:18.794Z,38.07
2019-04-04T20:35:47.986Z,37.13
2019-04-04T20:38:17.239Z,38.60
2019-04-04T20:40:46.546Z,40.97
2019-04-04T20:43:15.834Z,40.30
2019-04-04T20:45:45.147Z,40.40
2019-04-04T20:48:14.434Z,32.37
2019-04-04T20:50:43.717Z,39.27
2019-04-04T20:53:12.932Z,36.97
2019-04-04T20:55:42.161Z,37.77
2019-04-04T20:58:11.492Z,40.77
2019-04-04T21:00:40.846Z,41.07
2019-04-04T21:03:10.246Z,39.50
2019-04-04T21:05:39.502Z,39.93
2019-04-04T21:08:08.954Z,39.13
2019-04-04T21:10:38.341Z,38.90
2019-04-04T21:13:07.650Z,37.43
2019-04-04T21:15:36.971Z,38.73
2019-04-04T21:18:06.314Z,37.57
2019-04-04T21:20:35.680Z,36.00
2019-04-04T21:23:04.889Z,39.00
2019-04-04T21:25:34.124Z,36.90
2019-04-04T21:28:03.368Z,35.93
2019-04-04T21:30:32.652Z,36.37
2019-04-04T21:33:01.981Z,33.70
2019-04-04T21:35:31.190Z,37.23
2019-04-04T21:38:00.432Z,37.37
2019-04-04T21:40:29.746Z,38.00
2019-04-04T21:42:59.010Z,34.97
2019-04-04T21:45:28.354Z,35.07
2019-04-04T21:47:57.574Z,34.77
2019-04-04T21:50:26.816Z,34.73
2019-04-04T21:52:56.090Z,37.07
2019-04-04T21:55:25.388Z,32.10
2019-04-04T21:57:54.643Z,35.23
2019-04-04T22:00:24.222Z,37.20
2019-04-04T22:02:53.557Z,36.30
2019-04-04T22:05:22.832Z,36.37
2019-04-04T22:07:52.142Z,35.87
2019-04-04T22:10:21.491Z,37.80
2019-04-04T22:12:50.798Z,37.30
2019-04-04T22:15:20.131Z,38.30
2019-04-04T22:17:49.424Z,36.63
2019-04-04T22:20:18.791Z,37.40
2019-04-04T22:22:48.083Z,38.30
2019-04-04T22:25:17.393Z,39.50
2019-04-04T22:27:46.684Z,37.97
2019-04-04T22:30:15.949Z,37.83
2019-04-04T22:32:45.220Z,41.67
2019-04-04T22:35:14.500Z,41.03
2019-04-04T22:37:43.841Z,41.33
2019-04-04T22:40:13.115Z,41.73
2019-04-04T22:42:42.399Z,42.57
2019-04-04T22:45:11.687Z,41.13
2019-04-04T22:47:40.950Z,40.83
2019-04-04T22:50:10.194Z,43.33
2019-04-04T22:52:39.519Z,41.07
2019-04-04T22:55:08.820Z,41.67
2019-04-04T22:57:38.095Z,41.10
2019-04-04T23:00:07.732Z,45.20
2019-04-04T23:02:37.069Z,41.87
2019-04-04T23:05:06.339Z,42.27
2019-04-04T23:07:35.578Z,43.00
2019-04-04T23:10:05.748Z,41.13
2019-04-04T23:12:35.046Z,40.63
2019-04-04T23:15:04.552Z,40.70
2019-04-04T23:17:33.800Z,41.73
2019-04-04T23:20:03.087Z,42.00
2019-04-04T23:22:32.455Z,38.10
2019-04-04T23:25:01.708Z,42.53
2019-04-04T23:27:30.978Z,41.10
2019-04-04T23:30:00.232Z,40.93
2019-04-04T23:32:29.560Z,40.33
2019-04-04T23:34:58.836Z,40.60
2019-04-04T23:37:28.147Z,41.07
2019-04-04T23:39:57.422Z,38.57
2019-04-04T23:42:26.750Z,41.37
2019-04-04T23:45:01.182Z,41.03
2019-04-04T23:47:25.351Z,43.77
2019-04-04T23:49:54.605Z,42.67
2019-04-04T23:52:23.948Z,39.50
2019-04-04T23:54:53.214Z,43.63
2019-04-04T23:57:22.478Z,42.73
2019-04-04T23:59:51.740Z,39.20
